EDT,Max TemperatureF,Mean TemperatureF,Min TemperatureF,Max Dew PointF,MeanDew PointF,Min DewpointF,Max Humidity, Mean Humidity, Min Humidity, Max Sea Level PressureIn, Mean Sea Level PressureIn, Min Sea Level PressureIn, Max VisibilityMiles, Mean VisibilityMiles, Min VisibilityMiles, Max Wind SpeedMPH, Mean Wind SpeedMPH, Max Gust SpeedMPH,PrecipitationIn, CloudCover, Events, WindDirDegrees
2012-10-1,87,76,66,77,72,66,100,93,62,29.83,29.78,29.72,10,8,2,13,2,,0.00,1,,166
2012-10-2,86,80,73,77,74,73,100,94,70,30.02,29.87,29.78,10,10,7,18,4,,0.00,2,,181
2012-10-3,82,76,71,77,73,72,100,98,74,30.19,30.09,30.02,10,7,2,5,0,,0.00,4,Rain,-1
2012-10-4,87,79,71,79,73,72,100,97,66,30.21,30.18,30.14,10,3,0,6,0,,0.00,5,Fog-Rain-Thunderstorm,180
2012-10-5,84,78,71,77,74,72,100,98,74,30.16,30.09,30.01,10,4,0,10,1,,0.00,5,Fog-Rain,21
2012-10-6,84,76,69,77,73,70,100,97,70,30.03,29.98,29.91,10,5,0,8,1,,0.00,2,Fog,333
2012-10-7,89,78,66,75,71,66,100,92,52,30.03,29.98,29.93,10,8,0,12,1,,0.00,2,Fog-Thunderstorm,95
2012-10-8,84,76,68,75,72,68,100,96,66,30.06,30.00,29.95,10,7,0,9,1,,0.00,3,Fog,42
2012-10-9,68,64,59,68,63,59,100,98,88,30.12,30.07,30.04,10,4,1,9,5,,0.00,6,,8
2012-10-10,80,68,57,66,60,57,100,98,58,30.17,30.11,30.06,10,3,0,8,0,,0.00,4,Fog,335
2012-10-11,78,66,55,63,59,55,100,90,51,30.24,30.17,30.13,10,6,2,12,1,,0.00,0,,16
2012-10-12,82,70,57,66,61,57,100,91,54,30.25,30.19,30.15,10,8,4,7,1,,0.00,0,,30
2012-10-13,80,70,59,70,63,59,100,91,58,30.26,30.21,30.18,10,7,4,17,2,,0.00,1,,34
2012-10-14,84,74,64,72,69,64,100,94,58,30.19,30.12,30.03,10,7,1,12,3,,0.00,2,,40
2012-10-15,84,73,62,73,67,63,100,94,58,30.02,29.93,29.83,10,7,0,9,0,,0.00,1,Fog,275
2012-10-16,77,67,57,68,59,54,100,81,50,29.93,29.89,29.86,10,10,10,10,3,,0.00,3,,4
2012-10-17,75,65,55,68,60,55,100,95,69,29.94,29.89,29.85,10,9,5,6,1,,0.00,1,,27
2012-10-18,86,72,59,68,64,59,100,90,55,29.90,29.85,29.79,10,7,0,12,1,,0.00,2,Fog,242
2012-10-19,82,72,62,68,65,57,100,90,45,29.90,29.85,29.80,10,10,6,8,1,,0.00,3,,327
2012-10-20,80,65,50,63,54,45,100,87,28,29.98,29.92,29.88,10,10,8,14,1,,0.00,0,,272
2012-10-21,77,62,46,55,51,46,100,87,41,30.12,30.04,29.98,10,8,2,10,1,,0.00,0,,20
2012-10-22,77,66,55,64,58,55,100,89,54,30.17,30.12,30.09,10,9,5,15,2,,0.00,0,,51
2012-10-23,80,68,55,66,61,55,100,92,54,30.14,30.10,30.07,10,10,7,12,1,,0.00,1,,56
2012-10-24,82,71,60,68,65,61,100,91,51,30.10,30.06,30.01,10,6,0,16,2,,0.00,1,Fog,48
2012-10-25,82,73,64,72,68,64,100,90,62,30.02,29.96,29.92,10,7,0,14,3,28,0.00,2,Fog,33
2012-10-26,77,72,68,72,67,59,100,87,64,29.91,29.82,29.73,10,8,6,25,7,34,0.00,2,,359
2012-10-27,71,68,64,63,60,59,88,78,73,29.71,29.65,29.61,10,9,7,20,12,26,0.00,3,,324
2012-10-28,75,65,55,59,55,46,94,78,50,29.79,29.71,29.66,10,10,10,18,10,22,0.00,2,,284
2012-10-29,64,55,46,46,40,32,76,62,34,29.85,29.78,29.70,10,10,10,22,13,29,0.00,1,,285
2012-10-30,53,46,39,34,32,32,75,62,44,29.93,29.82,29.76,10,10,10,20,6,29,0.00,0,,242
2012-10-31,71,56,42,48,39,34,76,60,32,30.01,29.95,29.90,10,10,10,16,7,32,0.00,0,,237